KAUG/AUG METAR and TAF weather

Enter ICAO airport designator
Station Type Date Time Source
KAUG METAR 2019/12/07 09:53 UTC NOAA

KAUG 070953Z AUTO 29007KT 10SM CLR M07/M11 A3011 RMK AO2 SLP203 T10671106


Station Type Date Time Source
KAUG Decoded METAR 2019/12/07 09:53 UTC NOAA

AUGUSTA STATE AIRPORT, ME, United States (KAUG) 44-19N 069-48W 109M
Dec 07, 2019 - 04:53 AM EST / 2019.12.07 0953 UTC
Wind: from the WNW (290 degrees) at 8 MPH (7 KT):0
Visibility: 10 mile(s):0
Sky conditions: clear
Temperature: 19.9 F (-6.7 C)
Windchill: 10 F (-12 C):1
Dew Point: 12.9 F (-10.6 C)
Relative Humidity: 73%
Pressure (altimeter): 30.11 in. Hg (1019 hPa)
ob: KAUG 070953Z AUTO 29007KT 10SM CLR M07/M11 A3011 RMK AO2 SLP203 T10671106
cycle: 10

Station Type Date Time Source
KAUG TAF 2019/12/07 09:30 UTC NOAA

TAF
AMD KAUG 070926Z 0709/0806 VRB03KT P6SM FEW035
FM071500 31008G15KT P6SM FEW100

Example: see airport list